ADDS METAR Data INFO
IDs: Format: Raw Decoded Include TAF

Data at: 2300 UTC 16 Jan 2018

KEOK 162255Z AUTO 30007KT 10SM SCT015 M12/M17 A3065 RMK AO2
KEOK 162235Z AUTO 29009KT 10SM SCT015 M12/M17 A3065 RMK AO2
KEOK 162215Z AUTO 29007KT 10SM CLR M12/M17 A3065 RMK AO2
KEOK 162155Z AUTO 28009KT 10SM FEW013 SCT020 M12/M16 A3064 RMK AO2
KEOK 162135Z AUTO 30008KT 10SM SCT021 M12/M16 A3064 RMK AO2
KEOK 162115Z AUTO 10SM OVC020 M12/M16 A3064 RMK AO2
KEOK 162055Z AUTO BKN020 M12/M16 A3064 RMK AO2
KEOK 162035Z AUTO 30008G14KT 10SM FEW015 BKN020 M12/M17 A3063 RMK AO2
KEOK 162015Z AUTO 29009KT 10SM BKN020 M12/M17 A3063 RMK AO2
KEOK 161955Z AUTO 30010KT 10SM OVC017 M12/M17 A3063 RMK AO2
KEOK 161935Z AUTO 10SM OVC018 M12/M17 A3063 RMK AO2
KEOK 161915Z AUTO 29011KT 10SM BKN015 M12/M17 A3063 RMK AO2
KEOK 161855Z AUTO 29009KT 10SM FEW015 SCT020 SCT027 M13/M18 A3063 RMK AO2
KEOK 161835Z AUTO 30009KT 10SM -SN BKN019 BKN026 M13/M18 A3064 RMK AO2
KEOK 161815Z AUTO 28008KT 10SM -SN BKN019 OVC025 M13/M18 A3064 RMK AO2
KEOK 161755Z AUTO 31009KT 10SM BKN019 BKN028 OVC039 M13/M18 A3065 RMK AO2
KEOK 161735Z AUTO 30009KT 10SM SCT018 SCT022 BKN041 M14/M19 A3065 RMK AO2
KEOK 161715Z AUTO 32009KT 10SM OVC018 M14/M19 A3066 RMK AO2
KEOK 161655Z AUTO 31007KT 10SM SCT019 BKN024 BKN028 M15/M20 A3067 RMK AO2
KEOK 161635Z AUTO 28009KT 10SM FEW018 BKN026 M16/M21 A3067 RMK AO2
KEOK 161615Z AUTO 28010KT 9SM -SN FEW017 OVC027 M17/M21 A3066 RMK AO2
KEOK 161555Z AUTO 29011KT 10SM BKN026 OVC030 M18/M22 A3066 RMK AO2
KEOK 161535Z AUTO 30008KT 10SM -SN FEW021 BKN026 OVC055 M18/M22 A3065 RMK AO2
KEOK 161515Z AUTO 29010KT 9SM -SN FEW022 FEW047 OVC060 M19/M22 A3064 RMK AO2
KEOK 161455Z AUTO 29008G14KT 4SM -SN SCT022 BKN047 OVC055 M19/M23 A3064 RMK AO2
KEOK 161435Z AUTO 30009KT 9SM -SN FEW024 SCT048 OVC055 M20/M23 A3063 RMK AO2
KEOK 161415Z AUTO 30010KT 10SM FEW012 OVC060 M20/M24 A3063 RMK AO2
KEOK 161355Z AUTO 29009KT 10SM FEW012 OVC060 M20/M24 A3063 RMK AO2
KEOK 161335Z AUTO 28008KT 10SM OVC055 M20/M24 A3062 RMK AO2
KEOK 161315Z AUTO 29009KT 10SM BKN060 M21/M24 A3062 RMK AO2
KEOK 161255Z AUTO 29007KT 10SM FEW014 FEW055 M21/M25 A3062 RMK AO2
KEOK 161235Z AUTO 29008KT 10SM FEW015 FEW022 FEW027 M21/M25 A3061 RMK AO2
KEOK 161215Z AUTO 30007KT 10SM FEW015 BKN024 BKN040 M21/M25 A3061 RMK AO2
KEOK 161155Z AUTO 29007KT 10SM FEW013 SCT026 BKN033 M21/M25 A3060 RMK AO2
KEOK 161135Z AUTO 29008KT 10SM FEW030 SCT035 M21/M24 A3059 RMK AO2
KEOK 161115Z AUTO 30008KT 10SM FEW036 M21/M24 A3059 RMK AO2
KEOK 161055Z AUTO 30010KT FEW013 M20/M24 A3058 RMK AO2
KEOK 161035Z AUTO 30009KT 10SM SCT013 M20/M24 A3058 RMK AO2
KEOK 161015Z AUTO 30009KT 10SM BKN013 BKN019 M20/M24 A3058 RMK AO2
KEOK 160955Z AUTO 30008KT 10SM BKN013 M20/M24 A3058 RMK AO2
KEOK 160935Z AUTO 29009KT 10SM BKN013 M20/M24 A3058 RMK AO2
KEOK 160915Z AUTO 30009KT 10SM SCT013 BKN027 M20/M24 A3058 RMK AO2
KEOK 160855Z AUTO 29007KT 10SM FEW015 FEW020 OVC029 M20/M24 A3058 RMK AO2
KEOK 160835Z AUTO 30008KT 10SM BKN014 BKN020 OVC031 M20/M24 A3058 RMK AO2
KEOK 160815Z AUTO 29011KT 10SM BKN014 BKN020 OVC031 M20/M24 A3058 RMK AO2
KEOK 160755Z AUTO 29009KT 10SM BKN014 BKN028 BKN033 M19/M24 A3058 RMK AO2
KEOK 160735Z AUTO 30009KT 10SM BKN039 M19/M24 A3057 RMK AO2
KEOK 160715Z AUTO 29009KT 10SM FEW016 FEW022 SCT040 M19/M23 A3057 RMK AO2
KEOK 160655Z AUTO 29009KT 10SM BKN018 M19/M23 A3057 RMK AO2
KEOK 160635Z AUTO 29010KT 10SM FEW013 OVC020 M19/M23 A3057 RMK AO2
KEOK 160615Z AUTO 28011KT 10SM OVC020 M19/M23 A3057 RMK AO2
KEOK 160555Z AUTO 29010KT 10SM BKN016 BKN032 M19/M23 A3057 RMK AO2
KEOK 160535Z AUTO 30009KT 10SM FEW014 SCT032 M19/M23 A3057 RMK AO2
KEOK 160515Z AUTO 28009KT 10SM FEW031 M19/M23 A3057 RMK AO2
KEOK 160455Z AUTO 29010KT 10SM CLR M18/M23 A3058 RMK AO2
KEOK 160435Z AUTO 29012G18KT 10SM CLR M18/M23 A3057 RMK AO2
KEOK 160415Z AUTO 29011G17KT 10SM FEW017 FEW030 M18/M23 A3057 RMK AO2
KEOK 160355Z AUTO 30011KT 10SM FEW017 SCT030 M18/M23 A3056 RMK AO2
KEOK 160335Z AUTO 30011G20KT 10SM SCT017 SCT022 SCT030 M18/M23 A3056 RMK AO2
KEOK 160315Z AUTO 30011G24KT 10SM BKN017 BKN022 BKN029 M18/M23 A3056 RMK AO2
KEOK 160255Z AUTO 30013G18KT 10SM BKN019 BKN029 M17/M22 A3056 RMK AO2
KEOK 160235Z AUTO 31011G20KT 10SM BKN018 BKN023 OVC065 M17/M21 A3055 RMK AO2
KEOK 160215Z AUTO 30010KT 6SM HZ SCT007 BKN017 OVC065 M17/M20 A3055 RMK AO2
KEOK 160155Z AUTO 31006KT 7SM SCT008 BKN018 OVC065 M17/M20 A3055 RMK AO2
KEOK 160135Z AUTO 31007G12KT 10SM FEW011 BKN020 OVC060 M17/M21 A3054 RMK AO2
KEOK 160115Z AUTO 30009KT 10SM BKN020 BKN025 BKN060 M16/M21 A3053 RMK AO2
KEOK 160055Z AUTO 30008G14KT 10SM FEW021 FEW027 SCT060 M16/M21 A3052 RMK AO2
KEOK 160035Z AUTO 29012KT 10SM FEW021 SCT028 M16/M21 A3052 RMK AO2
KEOK 160015Z AUTO 30009KT 10SM SCT020 BKN027 M16/M21 A3051 RMK AO2
KEOK 152355Z AUTO 31008KT 10SM SCT021 BKN025 BKN060 M16/M21 A3049 RMK AO2
KEOK 152335Z AUTO 31010KT 10SM OVC060 M15/M20 A3049 RMK AO2
KEOK 152315Z AUTO 30010G16KT 10SM OVC060 M15/M20 A3049 RMK AO2
KEOK 152255Z AUTO 30013KT 10SM FEW021 FEW029 OVC060 M14/M20 A3047 RMK AO2
KEOK 152235Z AUTO 30010G15KT 10SM BKN021 BKN028 BKN055 M14/M19 A3046 RMK AO2
KEOK 152215Z AUTO 29013KT 10SM BKN021 BKN030 BKN055 M14/M19 A3045 RMK AO2
KEOK 152155Z AUTO 30015G23KT 10SM BKN020 BKN025 M14/M19 A3044 RMK AO2
KEOK 152135Z AUTO 31012G20KT 270V330 10SM SCT023 BKN029 M13/M19 A3043 RMK AO2
KEOK 152115Z AUTO 29016KT 10SM FEW022 OVC029 M13/M19 A3042 RMK AO2
KEOK 152055Z AUTO 30011G18KT 10SM FEW021 BKN028 M13/M19 A3041 RMK AO2
KEOK 152035Z AUTO 28013KT 10SM SCT023 OVC028 M13/M19 A3040 RMK AO2
KEOK 152015Z AUTO 31013G19KT 10SM SCT020 BKN026 M13/M19 A3039 RMK AO2
KEOK 151955Z AUTO 29016KT 9SM SCT019 BKN025 M14/M19 A3038 RMK AO2
KEOK 151935Z AUTO 31010G19KT 10SM BKN021 BKN028 M14/M19 A3038 RMK AO2
KEOK 151915Z AUTO 30016KT 8SM FEW015 SCT022 BKN028 M13/M19 A3038 RMK AO2
KEOK 151855Z AUTO 31014G19KT 10SM FEW015 FEW021 BKN027 M13/M19 A3038 RMK AO2
KEOK 151835Z AUTO 29016G22KT 9SM OVC028 M13/M18 A3037 RMK AO2
KEOK 151815Z AUTO 27015KT 10SM OVC027 M13/M18 A3037 RMK AO2
KEOK 151755Z AUTO 30014KT 10SM OVC025 M13/M18 A3038 RMK AO2
KEOK 151735Z AUTO 31011G17KT 10SM BKN021 OVC026 M13/M18 A3037 RMK AO2
KEOK 151715Z AUTO 31013G19KT 10SM BKN019 BKN026 M13/M19 A3038 RMK AO2
KEOK 151655Z AUTO 30015G20KT 10SM BKN019 BKN024 M13/M18 A3038 RMK AO2
KEOK 151615Z AUTO 31013G25KT 10SM BKN018 OVC024 M13/M18 A3037 RMK AO2
KEOK 151555Z AUTO 30013G20KT 10SM BKN019 OVC024 M13/M18 A3036 RMK AO2
KEOK 151535Z AUTO 30016G22KT 10SM BKN019 BKN028 M13/M18 A3034 RMK AO2
KEOK 151515Z AUTO 30014KT 10SM SCT021 BKN027 M13/M17 A3034 RMK AO2
KEOK 151455Z AUTO 30016G23KT 10SM -SN OVC026 M13/M17 A3032 RMK AO2
KEOK 151435Z AUTO 29014G21KT 10SM FEW017 OVC026 M13/M17 A3032 RMK AO2
KEOK 151415Z AUTO 30016G21KT 10SM SCT017 OVC023 M13/M18 A3031 RMK AO2
KEOK 151355Z AUTO 31012G20KT 10SM OVC020 M13/M18 A3030 RMK AO2
KEOK 151335Z AUTO 30010G18KT 10SM OVC016 M13/M17 A3029 RMK AO2
KEOK 151315Z AUTO 30015G20KT 10SM BKN018 M13/M17 A3029 RMK AO2
KEOK 151255Z AUTO 31010G20KT 10SM BKN016 M13/M17 A3027 RMK AO2
KEOK 151235Z AUTO 32013G20KT 10SM BKN015 M13/M17 A3027 RMK AO2
KEOK 151215Z AUTO 31014KT BKN014 M13/M17 A3026 RMK AO2
KEOK 151155Z AUTO 31015G21KT 10SM BKN014 BKN033 OVC041 M13/M16 A3026 RMK AO2
KEOK 151135Z AUTO 31016G26KT 10SM FEW015 SCT033 OVC041 M12/M16 A3024 RMK AO2
KEOK 151115Z AUTO 31014G24KT 10SM FEW015 OVC040 M11/M15 A3022 RMK AO2